createdAt,value
2019-03-16T00:00:03.069Z,83.27
2019-03-16T00:02:32.567Z,83.13
2019-03-16T00:05:01.984Z,83.40
2019-03-16T00:07:33.281Z,84.26
2019-03-16T00:10:02.601Z,84.00
2019-03-16T00:12:31.983Z,84.35
2019-03-16T00:15:01.456Z,84.46
2019-03-16T00:17:30.937Z,83.67
2019-03-16T00:20:00.416Z,84.13
2019-03-16T00:22:29.807Z,84.13
2019-03-16T00:24:59.402Z,84.24
2019-03-16T00:27:28.794Z,84.11
2019-03-16T00:29:58.234Z,83.97
2019-03-16T00:32:27.602Z,83.81
2019-03-16T00:34:57.340Z,83.72
2019-03-16T00:37:26.954Z,83.84
2019-03-16T00:39:56.395Z,84.00
2019-03-16T00:42:26.261Z,83.65
2019-03-16T00:44:55.751Z,85.11
2019-03-16T00:47:25.253Z,86.12
2019-03-16T00:49:54.640Z,86.50
2019-03-16T00:52:24.037Z,85.91
2019-03-16T00:54:53.447Z,84.95
2019-03-16T00:57:22.860Z,85.44
2019-03-16T00:59:53.054Z,84.44
2019-03-16T01:02:27.275Z,84.27
2019-03-16T01:04:53.621Z,84.78
2019-03-16T01:07:23.137Z,84.51
2019-03-16T01:09:52.576Z,84.31
2019-03-16T01:12:21.967Z,84.53
2019-03-16T01:14:51.358Z,84.70
2019-03-16T01:17:20.787Z,84.98
2019-03-16T01:19:50.188Z,85.16
2019-03-16T01:22:19.597Z,85.42
2019-03-16T01:24:49.064Z,85.62
2019-03-16T01:27:18.493Z,86.14
2019-03-16T01:29:48.003Z,86.49
2019-03-16T01:32:17.401Z,86.82
2019-03-16T01:34:46.817Z,86.82
2019-03-16T01:37:16.241Z,87.36
2019-03-16T01:39:45.774Z,86.76
2019-03-16T01:42:15.276Z,87.63
2019-03-16T01:44:44.742Z,87.63
2019-03-16T01:47:14.215Z,87.29
2019-03-16T01:49:43.754Z,87.41
2019-03-16T01:52:13.170Z,87.47
2019-03-16T01:54:42.567Z,87.47
2019-03-16T01:57:12.043Z,87.44
2019-03-16T01:59:41.457Z,87.44
2019-03-16T02:02:10.839Z,87.38
2019-03-16T02:04:40.337Z,87.14
2019-03-16T02:07:09.741Z,87.02
2019-03-16T02:09:39.129Z,86.95
2019-03-16T02:12:08.527Z,86.69
2019-03-16T02:14:37.946Z,86.94
2019-03-16T02:17:07.349Z,86.46
2019-03-16T02:19:36.902Z,86.74
2019-03-16T02:22:06.378Z,86.29
2019-03-16T02:24:35.850Z,86.29
2019-03-16T02:27:05.594Z,86.87
2019-03-16T02:29:35.118Z,86.87
2019-03-16T02:32:04.745Z,86.88
2019-03-16T02:34:34.343Z,86.77
2019-03-16T02:37:03.802Z,86.24
2019-03-16T02:39:33.608Z,86.28
2019-03-16T02:42:03.006Z,85.72
2019-03-16T02:44:32.415Z,85.55
2019-03-16T02:47:01.821Z,85.04
2019-03-16T02:49:31.413Z,85.04
2019-03-16T02:52:01.063Z,84.81
2019-03-16T02:54:30.628Z,84.96
2019-03-16T02:57:00.187Z,84.52
2019-03-16T02:59:29.585Z,84.64
2019-03-16T03:01:59.084Z,84.04
2019-03-16T03:04:28.652Z,83.68
2019-03-16T03:06:58.108Z,83.25
2019-03-16T03:09:27.544Z,83.09
2019-03-16T03:11:56.964Z,83.09
2019-03-16T03:14:26.789Z,82.61
2019-03-16T03:16:56.283Z,84.69
2019-03-16T03:19:25.690Z,86.10
2019-03-16T03:21:55.101Z,86.10
2019-03-16T03:24:24.566Z,87.24
2019-03-16T03:26:53.994Z,89.19
2019-03-16T03:29:23.394Z,89.19
2019-03-16T03:31:52.902Z,90.55
2019-03-16T03:34:22.326Z,92.96
2019-03-16T03:36:51.690Z,92.96
2019-03-16T03:39:21.264Z,92.41
2019-03-16T03:41:50.725Z,92.41
2019-03-16T03:44:20.137Z,92.91
2019-03-16T03:46:49.510Z,93.58
2019-03-16T03:49:18.879Z,93.58
2019-03-16T03:51:48.304Z,93.70
2019-03-16T03:54:17.684Z,93.48
2019-03-16T03:56:47.190Z,94.44
2019-03-16T03:59:16.587Z,93.07
2019-03-16T04:01:46.198Z,92.28
2019-03-16T04:04:16.289Z,92.87
2019-03-16T04:06:45.921Z,93.23
2019-03-16T04:09:15.354Z,93.41
2019-03-16T04:11:44.735Z,93.48
2019-03-16T04:14:14.199Z,93.70
2019-03-16T04:16:43.722Z,94.85
2019-03-16T04:19:13.100Z,94.58
2019-03-16T04:21:42.627Z,93.96
2019-03-16T04:24:12.034Z,93.58
2019-03-16T04:26:41.426Z,93.43
2019-03-16T04:29:10.844Z,93.90
2019-03-16T04:31:40.200Z,93.88
2019-03-16T04:34:09.775Z,93.61
2019-03-16T04:36:39.137Z,93.25
2019-03-16T04:39:08.688Z,93.73
2019-03-16T04:41:38.081Z,93.77
2019-03-16T04:44:07.473Z,93.25
2019-03-16T04:46:36.966Z,93.49
2019-03-16T04:49:06.375Z,93.16
2019-03-16T04:51:35.742Z,92.47
2019-03-16T04:54:05.147Z,92.79
2019-03-16T04:56:34.586Z,93.38
2019-03-16T04:59:04.031Z,93.77
2019-03-16T05:01:33.470Z,93.17
2019-03-16T05:04:02.934Z,92.32
2019-03-16T05:06:32.440Z,92.58
2019-03-16T05:09:01.811Z,92.12
2019-03-16T05:11:31.212Z,92.19
2019-03-16T05:14:00.613Z,92.30
2019-03-16T05:16:30.085Z,91.64
2019-03-16T05:18:59.489Z,91.93
2019-03-16T05:21:28.860Z,91.91
2019-03-16T05:23:58.262Z,93.11
2019-03-16T05:26:27.649Z,91.92
2019-03-16T05:28:57.065Z,92.06
2019-03-16T05:31:26.470Z,92.25
2019-03-16T05:33:55.845Z,91.35
2019-03-16T05:36:25.243Z,91.61
2019-03-16T05:38:54.634Z,92.84
2019-03-16T05:41:24.049Z,91.89
2019-03-16T05:43:53.418Z,92.55
2019-03-16T05:46:22.788Z,91.91
2019-03-16T05:48:52.188Z,92.69
2019-03-16T05:51:21.571Z,92.79
2019-03-16T05:53:51.092Z,92.58
2019-03-16T05:56:20.467Z,92.43
2019-03-16T05:58:50.056Z,92.26
2019-03-16T06:01:19.477Z,92.94
2019-03-16T06:03:48.876Z,94.06
2019-03-16T06:06:18.290Z,93.32
2019-03-16T06:08:47.655Z,92.69
2019-03-16T06:11:17.026Z,93.58
2019-03-16T06:13:46.435Z,92.16
2019-03-16T06:16:15.804Z,92.16
2019-03-16T06:18:45.235Z,93.25
2019-03-16T06:21:14.736Z,93.90
2019-03-16T06:23:44.323Z,93.84
2019-03-16T06:26:13.865Z,93.08
2019-03-16T06:28:43.338Z,93.03
2019-03-16T06:31:12.709Z,92.96
2019-03-16T06:33:42.083Z,91.81
2019-03-16T06:36:13.022Z,91.81
2019-03-16T06:38:42.413Z,91.09
2019-03-16T06:41:11.853Z,91.09
2019-03-16T06:43:41.205Z,91.20
2019-03-16T06:46:10.617Z,90.89
2019-03-16T06:48:39.983Z,89.57
2019-03-16T06:51:09.356Z,90.19
2019-03-16T06:53:38.980Z,89.84
2019-03-16T06:56:08.450Z,89.84
2019-03-16T06:58:38.050Z,90.27
2019-03-16T07:01:07.634Z,90.01
2019-03-16T07:03:37.035Z,90.63
2019-03-16T07:06:06.421Z,90.63
2019-03-16T07:08:35.808Z,90.42
2019-03-16T07:11:05.172Z,90.42
2019-03-16T07:13:34.555Z,91.03
2019-03-16T07:16:03.955Z,90.08
2019-03-16T07:18:33.317Z,89.88
2019-03-16T07:21:02.770Z,90.11
2019-03-16T07:23:32.269Z,90.11
2019-03-16T07:26:14.215Z,90.78
2019-03-16T07:28:33.108Z,90.78
2019-03-16T07:31:02.525Z,90.88
2019-03-16T07:33:31.926Z,91.75
2019-03-16T07:36:01.304Z,92.92
2019-03-16T07:38:30.746Z,92.92
2019-03-16T07:41:00.970Z,93.22
2019-03-16T07:43:30.454Z,92.39
2019-03-16T07:45:59.880Z,91.72
2019-03-16T07:48:29.347Z,91.72
2019-03-16T07:50:58.818Z,90.76
2019-03-16T07:53:28.245Z,89.92
2019-03-16T07:55:57.630Z,89.92
2019-03-16T07:58:27.061Z,89.98
2019-03-16T08:00:56.437Z,89.98
2019-03-16T08:03:25.867Z,90.00
2019-03-16T08:05:55.248Z,89.50
2019-03-16T08:08:24.665Z,88.42
2019-03-16T08:10:54.045Z,88.61
2019-03-16T08:13:24.192Z,88.33
2019-03-16T08:15:53.598Z,88.18
2019-03-16T08:18:23.026Z,88.18
2019-03-16T08:20:53.995Z,87.59
2019-03-16T08:23:23.371Z,87.98
2019-03-16T08:25:53.234Z,86.71
2019-03-16T08:28:22.705Z,86.71
2019-03-16T08:30:52.290Z,87.02
2019-03-16T08:33:21.693Z,86.41
2019-03-16T08:35:51.077Z,85.78
2019-03-16T08:38:20.476Z,85.78
2019-03-16T08:40:49.933Z,85.19
2019-03-16T08:43:19.437Z,84.76
2019-03-16T08:45:48.802Z,84.76
2019-03-16T08:48:23.191Z,84.58
2019-03-16T08:50:49.470Z,84.58
2019-03-16T08:53:18.852Z,84.46
2019-03-16T08:55:48.260Z,84.46
2019-03-16T08:58:17.653Z,82.95
2019-03-16T09:00:47.154Z,82.45
2019-03-16T09:03:16.654Z,82.45
2019-03-16T09:05:46.061Z,82.48
2019-03-16T09:08:15.454Z,82.07
2019-03-16T09:10:44.987Z,82.07
2019-03-16T09:13:14.394Z,81.81
2019-03-16T09:15:43.781Z,80.83
2019-03-16T09:18:13.212Z,80.83
2019-03-16T09:20:42.642Z,80.45
2019-03-16T09:23:12.178Z,80.68
2019-03-16T09:25:41.595Z,80.78
2019-03-16T09:28:18.697Z,81.07
2019-03-16T09:30:42.329Z,81.47
2019-03-16T09:33:12.199Z,81.47
2019-03-16T09:35:41.610Z,81.38
2019-03-16T09:38:11.033Z,81.12
2019-03-16T09:40:40.443Z,81.22
2019-03-16T09:43:09.820Z,81.14
2019-03-16T09:45:39.286Z,81.21
2019-03-16T09:48:08.963Z,81.21
2019-03-16T09:50:38.360Z,81.41
2019-03-16T09:53:07.749Z,81.58
2019-03-16T09:55:37.361Z,81.42
2019-03-16T09:58:06.733Z,81.00
2019-03-16T10:00:36.208Z,81.31
2019-03-16T10:03:05.609Z,81.31
2019-03-16T10:05:34.998Z,81.24
2019-03-16T10:08:04.544Z,80.90
2019-03-16T10:10:33.919Z,81.12
2019-03-16T10:13:03.414Z,81.15
2019-03-16T10:15:32.795Z,81.14
2019-03-16T10:18:02.229Z,81.06
2019-03-16T10:20:31.633Z,81.23
2019-03-16T10:23:01.013Z,81.67
2019-03-16T10:25:30.470Z,81.38
2019-03-16T10:27:59.950Z,81.38
2019-03-16T10:30:29.360Z,81.04
2019-03-16T10:32:58.771Z,81.51
2019-03-16T10:35:28.199Z,80.70
2019-03-16T10:37:57.729Z,80.56
2019-03-16T10:40:27.239Z,80.56
2019-03-16T10:42:56.682Z,81.45
2019-03-16T10:45:26.050Z,81.45
2019-03-16T10:47:55.552Z,83.00
2019-03-16T10:50:25.025Z,83.03
2019-03-16T10:52:54.422Z,82.29
2019-03-16T10:55:23.822Z,82.29
2019-03-16T10:57:53.225Z,80.54
2019-03-16T11:00:22.729Z,80.54
2019-03-16T11:02:52.121Z,79.50
2019-03-16T11:05:21.531Z,78.06
2019-03-16T11:07:51.021Z,78.06
2019-03-16T11:10:20.480Z,77.59
2019-03-16T11:12:49.873Z,76.59
2019-03-16T11:15:19.244Z,75.84
2019-03-16T11:17:48.649Z,75.42
2019-03-16T11:20:18.040Z,75.22
2019-03-16T11:22:47.541Z,75.02
2019-03-16T11:25:17.048Z,74.00
2019-03-16T11:27:46.443Z,73.70
2019-03-16T11:30:16.250Z,73.29
2019-03-16T11:32:45.701Z,72.85
2019-03-16T11:35:15.092Z,72.67
2019-03-16T11:37:44.462Z,72.43
2019-03-16T11:40:14.836Z,71.52
2019-03-16T11:42:44.513Z,71.16
2019-03-16T11:45:16.870Z,70.61
2019-03-16T11:47:45.069Z,70.61
2019-03-16T11:50:14.479Z,70.48
2019-03-16T11:52:43.911Z,70.82
2019-03-16T11:55:13.550Z,70.97
2019-03-16T11:57:42.921Z,70.83
2019-03-16T12:00:12.324Z,70.60
2019-03-16T12:02:41.729Z,70.67
2019-03-16T12:05:11.123Z,71.70
2019-03-16T12:07:40.565Z,71.12
2019-03-16T12:10:10.485Z,71.57
2019-03-16T12:12:39.916Z,71.62
2019-03-16T12:15:09.535Z,72.38
2019-03-16T12:17:38.894Z,72.17
2019-03-16T12:20:09.400Z,71.85
2019-03-16T12:22:38.798Z,71.78
2019-03-16T12:25:08.296Z,71.46
2019-03-16T12:27:37.697Z,71.50
2019-03-16T12:30:07.343Z,71.27
2019-03-16T12:32:37.503Z,71.84
2019-03-16T12:35:08.199Z,71.83
2019-03-16T12:37:37.778Z,71.50
2019-03-16T12:40:07.788Z,71.08
2019-03-16T12:42:37.513Z,70.92
2019-03-16T12:45:10.208Z,71.20
2019-03-16T12:47:39.640Z,70.29
2019-03-16T12:50:09.339Z,70.84
2019-03-16T12:52:38.792Z,70.77
2019-03-16T12:55:08.981Z,69.54
2019-03-16T12:57:38.819Z,68.94
2019-03-16T13:00:10.441Z,68.31
2019-03-16T13:02:39.846Z,68.74
2019-03-16T13:05:09.532Z,69.10
2019-03-16T13:07:39.180Z,67.83
2019-03-16T13:10:10.506Z,68.31
2019-03-16T13:12:40.117Z,67.83
2019-03-16T13:15:09.548Z,67.23
2019-03-16T13:17:38.914Z,66.82
2019-03-16T13:20:09.624Z,65.94
2019-03-16T13:22:39.002Z,64.74
2019-03-16T13:25:09.498Z,63.83
2019-03-16T13:27:39.020Z,63.20
2019-03-16T13:30:09.339Z,62.67
2019-03-16T13:32:38.748Z,62.34
2019-03-16T13:35:08.362Z,60.32
2019-03-16T13:37:37.777Z,60.79
2019-03-16T13:40:07.982Z,61.51
2019-03-16T13:42:37.396Z,61.67
2019-03-16T13:45:07.535Z,62.02
2019-03-16T13:47:36.935Z,61.98
2019-03-16T13:50:07.464Z,63.04
2019-03-16T13:52:37.237Z,62.19
2019-03-16T13:55:07.100Z,62.15
2019-03-16T13:57:36.483Z,62.89
2019-03-16T14:00:12.142Z,62.63
2019-03-16T14:02:38.622Z,59.85
2019-03-16T14:05:08.041Z,56.28
2019-03-16T14:07:37.662Z,52.84
2019-03-16T14:10:09.535Z,52.10
2019-03-16T14:12:38.977Z,51.47
2019-03-16T14:15:08.846Z,52.63
2019-03-16T14:17:38.680Z,55.84
2019-03-16T14:20:10.109Z,57.52
2019-03-16T14:22:39.476Z,58.61
2019-03-16T14:25:09.001Z,58.89
2019-03-16T14:27:38.474Z,59.68
2019-03-16T14:30:09.174Z,59.73
2019-03-16T14:32:38.536Z,60.49
2019-03-16T14:35:08.480Z,60.67
2019-03-16T14:37:37.886Z,60.43
2019-03-16T14:40:07.806Z,60.71
2019-03-16T14:42:37.270Z,61.13
2019-03-16T14:45:07.531Z,61.55
2019-03-16T14:47:37.040Z,61.23
2019-03-16T14:50:08.677Z,60.42
2019-03-16T14:52:38.274Z,60.74
2019-03-16T14:55:07.665Z,59.00
2019-03-16T14:57:37.062Z,59.23
2019-03-16T15:00:07.361Z,58.24
2019-03-16T15:02:36.746Z,57.84
2019-03-16T15:05:06.521Z,57.97
2019-03-16T15:07:36.031Z,57.51
2019-03-16T15:10:05.893Z,57.63
2019-03-16T15:12:35.560Z,56.56
2019-03-16T15:15:06.010Z,56.74
2019-03-16T15:17:35.399Z,56.40
2019-03-16T15:20:05.122Z,56.92
2019-03-16T15:22:34.527Z,57.31
2019-03-16T15:25:03.946Z,56.75
2019-03-16T15:27:33.565Z,56.75
2019-03-16T15:30:03.062Z,57.66
2019-03-16T15:32:32.494Z,57.23
2019-03-16T15:35:01.891Z,56.65
2019-03-16T15:37:31.303Z,56.99
2019-03-16T15:40:00.889Z,56.90
2019-03-16T15:42:30.306Z,57.06
2019-03-16T15:44:59.708Z,57.23
2019-03-16T15:47:30.097Z,56.98
2019-03-16T15:49:59.630Z,56.50
2019-03-16T15:52:29.209Z,56.77
2019-03-16T15:54:58.623Z,57.14
2019-03-16T15:57:28.337Z,56.93
2019-03-16T15:59:57.749Z,57.52
2019-03-16T16:02:27.146Z,57.64
2019-03-16T16:04:56.595Z,57.10
2019-03-16T16:07:25.999Z,58.25
2019-03-16T16:09:55.536Z,58.55
2019-03-16T16:12:25.062Z,58.46
2019-03-16T16:14:54.447Z,58.37
2019-03-16T16:17:23.902Z,59.38
2019-03-16T16:19:53.374Z,58.23
2019-03-16T16:22:23.024Z,58.08
2019-03-16T16:24:52.455Z,58.09
2019-03-16T16:27:24.109Z,58.31
2019-03-16T16:29:53.388Z,58.82
2019-03-16T16:32:22.798Z,58.51
2019-03-16T16:34:52.321Z,59.51
2019-03-16T16:37:21.780Z,59.59
2019-03-16T16:39:51.221Z,60.32
2019-03-16T16:42:20.601Z,59.72
2019-03-16T16:44:50.011Z,60.20
2019-03-16T16:47:19.457Z,61.16
2019-03-16T16:49:49.003Z,60.61
2019-03-16T16:52:18.396Z,60.55
2019-03-16T16:54:48.176Z,61.15
2019-03-16T16:57:17.691Z,61.50
2019-03-16T16:59:47.274Z,62.23
2019-03-16T17:02:16.820Z,62.58
2019-03-16T17:04:46.359Z,62.69
2019-03-16T17:07:16.065Z,63.45
2019-03-16T17:09:45.443Z,62.47
2019-03-16T17:12:14.813Z,62.14
2019-03-16T17:14:44.234Z,62.45
2019-03-16T17:17:13.632Z,62.16
2019-03-16T17:19:43.142Z,63.12
2019-03-16T17:22:12.579Z,63.69
2019-03-16T17:24:42.066Z,63.40
2019-03-16T17:27:11.612Z,63.42
2019-03-16T17:29:41.019Z,63.57
2019-03-16T17:32:10.422Z,64.11
2019-03-16T17:34:41.266Z,64.06
2019-03-16T17:37:10.936Z,63.74
2019-03-16T17:39:40.415Z,63.85
2019-03-16T17:42:09.932Z,65.13
2019-03-16T17:44:39.439Z,64.70
2019-03-16T17:47:11.037Z,64.93
2019-03-16T17:49:40.443Z,64.98
2019-03-16T17:52:09.882Z,64.69
2019-03-16T17:54:39.254Z,65.45
2019-03-16T17:57:08.635Z,65.58
2019-03-16T17:59:38.041Z,65.83
2019-03-16T18:02:07.778Z,65.98
2019-03-16T18:04:37.195Z,66.51
2019-03-16T18:07:06.800Z,66.65
2019-03-16T18:09:36.252Z,66.69
2019-03-16T18:12:06.153Z,67.12
2019-03-16T18:14:35.743Z,66.89
2019-03-16T18:17:05.226Z,67.03
2019-03-16T18:19:34.802Z,67.42
2019-03-16T18:22:04.216Z,67.47
2019-03-16T18:24:33.637Z,68.04
2019-03-16T18:27:03.040Z,68.32
2019-03-16T18:29:32.490Z,68.58
2019-03-16T18:32:07.768Z,68.90
2019-03-16T18:34:32.983Z,69.39
2019-03-16T18:37:02.463Z,69.11
2019-03-16T18:39:31.891Z,70.20
2019-03-16T18:42:01.478Z,70.06
2019-03-16T18:44:30.984Z,70.08
2019-03-16T18:47:00.401Z,70.43
2019-03-16T18:49:29.875Z,70.65
2019-03-16T18:51:59.363Z,70.83
2019-03-16T18:54:28.753Z,72.12
2019-03-16T18:56:58.236Z,72.41
2019-03-16T18:59:27.677Z,72.02
2019-03-16T19:01:57.080Z,71.73
2019-03-16T19:04:26.501Z,72.10
2019-03-16T19:06:55.987Z,72.54
2019-03-16T19:09:25.719Z,72.23
2019-03-16T19:11:55.192Z,72.97
2019-03-16T19:14:24.711Z,72.22
2019-03-16T19:16:54.163Z,73.14
2019-03-16T19:19:23.531Z,72.41
2019-03-16T19:21:52.964Z,72.72
2019-03-16T19:24:22.441Z,72.82
2019-03-16T19:26:51.837Z,72.76
2019-03-16T19:29:21.248Z,73.01
2019-03-16T19:31:50.642Z,73.85
2019-03-16T19:34:20.259Z,73.89
2019-03-16T19:36:49.590Z,73.59
2019-03-16T19:39:19.033Z,73.70
2019-03-16T19:41:48.451Z,73.52
2019-03-16T19:44:17.900Z,74.16
2019-03-16T19:46:47.312Z,74.04
2019-03-16T19:49:16.775Z,74.39
2019-03-16T19:51:46.414Z,74.39
2019-03-16T19:54:15.776Z,75.20
2019-03-16T19:56:45.308Z,75.83
2019-03-16T19:59:14.729Z,75.83
2019-03-16T20:01:44.287Z,75.94
2019-03-16T20:04:13.675Z,76.44
2019-03-16T20:06:43.148Z,76.58
2019-03-16T20:09:12.599Z,76.58
2019-03-16T20:11:42.199Z,75.94
2019-03-16T20:14:11.758Z,75.61
2019-03-16T20:16:41.277Z,75.61
2019-03-16T20:19:10.745Z,75.56
2019-03-16T20:21:40.316Z,75.40
2019-03-16T20:24:09.676Z,74.84
2019-03-16T20:26:39.200Z,75.54
2019-03-16T20:29:08.580Z,75.54
2019-03-16T20:31:46.973Z,75.41
2019-03-16T20:34:09.194Z,75.76
2019-03-16T20:36:38.717Z,75.84
2019-03-16T20:39:08.985Z,76.04
2019-03-16T20:41:38.632Z,76.04
2019-03-16T20:44:08.411Z,76.68
2019-03-16T20:46:37.866Z,76.55
2019-03-16T20:49:07.405Z,76.55
2019-03-16T20:51:36.847Z,76.50
2019-03-16T20:54:06.813Z,76.80
2019-03-16T20:56:36.220Z,78.13
2019-03-16T20:59:05.623Z,78.43
2019-03-16T21:01:35.239Z,77.92
2019-03-16T21:04:05.194Z,78.33
2019-03-16T21:06:34.600Z,78.03
2019-03-16T21:09:06.021Z,77.87
2019-03-16T21:11:35.466Z,77.68
2019-03-16T21:14:05.059Z,78.22
2019-03-16T21:16:34.449Z,78.18
2019-03-16T21:19:03.985Z,78.58
2019-03-16T21:21:33.419Z,78.87
2019-03-16T21:24:03.078Z,78.97
2019-03-16T21:26:32.519Z,78.83
2019-03-16T21:29:02.000Z,78.75
2019-03-16T21:31:31.383Z,78.54
2019-03-16T21:34:00.816Z,78.69
2019-03-16T21:36:41.050Z,78.63
2019-03-16T21:39:01.351Z,78.59
2019-03-16T21:41:30.775Z,79.30
2019-03-16T21:44:00.336Z,79.35
2019-03-16T21:46:29.747Z,79.21
2019-03-16T21:48:59.174Z,79.49
2019-03-16T21:51:28.578Z,79.47
2019-03-16T21:53:58.150Z,79.59
2019-03-16T21:56:27.582Z,79.94
2019-03-16T21:58:57.163Z,80.02
2019-03-16T22:01:26.703Z,79.92
2019-03-16T22:03:56.096Z,80.45
2019-03-16T22:06:25.499Z,80.17
2019-03-16T22:08:55.002Z,80.04
2019-03-16T22:11:24.425Z,80.08
2019-03-16T22:13:53.811Z,80.46
2019-03-16T22:16:23.201Z,80.74
2019-03-16T22:18:53.133Z,80.74
2019-03-16T22:21:22.510Z,81.09
2019-03-16T22:23:51.982Z,81.03
2019-03-16T22:26:21.423Z,81.36
2019-03-16T22:28:50.795Z,80.74
2019-03-16T22:31:20.261Z,81.04
2019-03-16T22:33:54.256Z,80.96
2019-03-16T22:36:20.771Z,81.19
2019-03-16T22:38:50.214Z,81.00
2019-03-16T22:41:19.720Z,80.88
2019-03-16T22:43:49.861Z,80.64
2019-03-16T22:46:19.358Z,80.82
2019-03-16T22:48:48.737Z,81.35
2019-03-16T22:51:18.106Z,81.46
2019-03-16T22:53:47.545Z,81.55
2019-03-16T22:56:17.155Z,81.11
2019-03-16T22:58:46.592Z,81.36
2019-03-16T23:01:16.132Z,81.02
2019-03-16T23:03:45.685Z,80.94
2019-03-16T23:06:15.260Z,81.15
2019-03-16T23:08:44.745Z,81.24
2019-03-16T23:11:14.152Z,81.38
2019-03-16T23:13:43.520Z,80.66
2019-03-16T23:16:12.944Z,80.80
2019-03-16T23:18:42.484Z,80.57
2019-03-16T23:21:12.004Z,80.38
2019-03-16T23:23:42.557Z,81.41
2019-03-16T23:26:12.115Z,81.91
2019-03-16T23:28:41.667Z,82.34
2019-03-16T23:31:12.505Z,82.16
2019-03-16T23:33:42.110Z,81.83
2019-03-16T23:36:11.653Z,82.36
2019-03-16T23:38:41.139Z,81.98
2019-03-16T23:41:10.521Z,81.80
2019-03-16T23:43:39.885Z,81.88
2019-03-16T23:46:09.631Z,81.67
2019-03-16T23:48:39.203Z,81.31
2019-03-16T23:51:08.588Z,81.24
2019-03-16T23:53:37.993Z,80.83
2019-03-16T23:56:07.756Z,81.03
2019-03-16T23:58:37.185Z,81.24
